sensor_id;sensor_type;location;lat;lon;timestamp;P1;durP1;ratioP1;P2;durP2;ratioP2
71910;SDS011;59783;52.232;5.170;2023-04-19T00:01:42;28.63;;;23.88;;
71910;SDS011;59783;52.232;5.170;2023-04-19T00:04:08;28.23;;;24.48;;
71910;SDS011;59783;52.232;5.170;2023-04-19T00:06:33;27.98;;;23.85;;
71910;SDS011;59783;52.232;5.170;2023-04-19T00:08:59;29.80;;;26.08;;
71910;SDS011;59783;52.232;5.170;2023-04-19T00:11:25;27.98;;;24.95;;
71910;SDS011;59783;52.232;5.170;2023-04-19T00:13:50;29.70;;;24.30;;
71910;SDS011;59783;52.232;5.170;2023-04-19T00:16:15;29.60;;;26.20;;
71910;SDS011;59783;52.232;5.170;2023-04-19T00:18:40;30.30;;;25.17;;
71910;SDS011;59783;52.232;5.170;2023-04-19T00:21:06;32.03;;;28.35;;
71910;SDS011;59783;52.232;5.170;2023-04-19T00:23:32;30.30;;;25.33;;
71910;SDS011;59783;52.232;5.170;2023-04-19T00:25:57;30.37;;;25.33;;
71910;SDS011;59783;52.232;5.170;2023-04-19T00:28:23;29.83;;;25.03;;
71910;SDS011;59783;52.232;5.170;2023-04-19T00:30:48;29.23;;;25.13;;
71910;SDS011;59783;52.232;5.170;2023-04-19T00:33:13;30.10;;;25.90;;
71910;SDS011;59783;52.232;5.170;2023-04-19T00:35:39;30.00;;;26.00;;
71910;SDS011;59783;52.232;5.170;2023-04-19T00:38:05;33.13;;;25.88;;
71910;SDS011;59783;52.232;5.170;2023-04-19T00:40:31;31.50;;;26.23;;
71910;SDS011;59783;52.232;5.170;2023-04-19T00:42:56;29.83;;;25.48;;
71910;SDS011;59783;52.232;5.170;2023-04-19T00:45:21;32.30;;;25.90;;
71910;SDS011;59783;52.232;5.170;2023-04-19T00:47:46;35.70;;;31.97;;
71910;SDS011;59783;52.232;5.170;2023-04-19T00:50:11;29.57;;;25.83;;
71910;SDS011;59783;52.232;5.170;2023-04-19T00:52:37;34.97;;;31.40;;
71910;SDS011;59783;52.232;5.170;2023-04-19T00:55:02;30.40;;;26.27;;
71910;SDS011;59783;52.232;5.170;2023-04-19T00:57:28;34.13;;;28.23;;
71910;SDS011;59783;52.232;5.170;2023-04-19T00:59:53;33.05;;;27.40;;
71910;SDS011;59783;52.232;5.170;2023-04-19T01:02:19;34.30;;;29.80;;
71910;SDS011;59783;52.232;5.170;2023-04-19T01:04:45;31.58;;;26.92;;
71910;SDS011;59783;52.232;5.170;2023-04-19T01:07:11;32.10;;;28.70;;
71910;SDS011;59783;52.232;5.170;2023-04-19T01:09:39;32.57;;;29.03;;
71910;SDS011;59783;52.232;5.170;2023-04-19T01:12:04;32.38;;;28.88;;
71910;SDS011;59783;52.232;5.170;2023-04-19T01:14:30;32.30;;;28.80;;
71910;SDS011;59783;52.232;5.170;2023-04-19T01:16:55;33.80;;;28.87;;
71910;SDS011;59783;52.232;5.170;2023-04-19T01:19:21;32.15;;;28.45;;
71910;SDS011;59783;52.232;5.170;2023-04-19T01:21:47;31.95;;;28.52;;
71910;SDS011;59783;52.232;5.170;2023-04-19T01:24:12;33.17;;;28.35;;
71910;SDS011;59783;52.232;5.170;2023-04-19T01:26:37;33.67;;;29.60;;
71910;SDS011;59783;52.232;5.170;2023-04-19T01:29:03;33.63;;;29.37;;
71910;SDS011;59783;52.232;5.170;2023-04-19T01:31:28;33.20;;;28.70;;
71910;SDS011;59783;52.232;5.170;2023-04-19T01:33:53;34.90;;;27.80;;
71910;SDS011;59783;52.232;5.170;2023-04-19T01:36:18;32.93;;;29.17;;
71910;SDS011;59783;52.232;5.170;2023-04-19T01:38:43;35.63;;;28.83;;
71910;SDS011;59783;52.232;5.170;2023-04-19T01:41:11;33.58;;;28.45;;
71910;SDS011;59783;52.232;5.170;2023-04-19T01:43:36;35.77;;;27.17;;
71910;SDS011;59783;52.232;5.170;2023-04-19T01:46:01;35.90;;;28.60;;
71910;SDS011;59783;52.232;5.170;2023-04-19T01:48:27;32.65;;;28.35;;
71910;SDS011;59783;52.232;5.170;2023-04-19T01:50:52;32.40;;;27.57;;
71910;SDS011;59783;52.232;5.170;2023-04-19T01:53:17;32.80;;;28.93;;
71910;SDS011;59783;52.232;5.170;2023-04-19T01:55:42;33.97;;;30.33;;
71910;SDS011;59783;52.232;5.170;2023-04-19T01:58:08;35.13;;;30.23;;
71910;SDS011;59783;52.232;5.170;2023-04-19T02:00:33;37.33;;;33.33;;
71910;SDS011;59783;52.232;5.170;2023-04-19T02:02:59;36.08;;;30.00;;
71910;SDS011;59783;52.232;5.170;2023-04-19T02:05:24;34.05;;;29.50;;
71910;SDS011;59783;52.232;5.170;2023-04-19T02:07:49;32.30;;;27.07;;
71910;SDS011;59783;52.232;5.170;2023-04-19T02:10:14;36.58;;;31.35;;
71910;SDS011;59783;52.232;5.170;2023-04-19T02:12:40;32.97;;;29.37;;
71910;SDS011;59783;52.232;5.170;2023-04-19T02:15:05;34.45;;;29.55;;
71910;SDS011;59783;52.232;5.170;2023-04-19T02:17:31;36.90;;;32.95;;
71910;SDS011;59783;52.232;5.170;2023-04-19T02:19:56;36.75;;;29.95;;
71910;SDS011;59783;52.232;5.170;2023-04-19T02:22:21;34.20;;;28.63;;
71910;SDS011;59783;52.232;5.170;2023-04-19T02:24:48;33.27;;;27.63;;
71910;SDS011;59783;52.232;5.170;2023-04-19T02:27:13;35.55;;;28.88;;
71910;SDS011;59783;52.232;5.170;2023-04-19T02:29:41;32.10;;;27.90;;
71910;SDS011;59783;52.232;5.170;2023-04-19T02:34:32;33.00;;;29.40;;
71910;SDS011;59783;52.232;5.170;2023-04-19T02:36:57;34.72;;;29.00;;
71910;SDS011;59783;52.232;5.170;2023-04-19T02:39:22;33.33;;;29.70;;
71910;SDS011;59783;52.232;5.170;2023-04-19T02:41:48;34.57;;;30.90;;
71910;SDS011;59783;52.232;5.170;2023-04-19T02:44:13;34.90;;;29.63;;
71910;SDS011;59783;52.232;5.170;2023-04-19T02:46:38;35.50;;;30.20;;
71910;SDS011;59783;52.232;5.170;2023-04-19T02:49:03;34.70;;;27.33;;
71910;SDS011;59783;52.232;5.170;2023-04-19T02:51:29;33.10;;;27.73;;
71910;SDS011;59783;52.232;5.170;2023-04-19T02:53:54;34.50;;;27.42;;
71910;SDS011;59783;52.232;5.170;2023-04-19T02:56:19;32.73;;;28.13;;
71910;SDS011;59783;52.232;5.170;2023-04-19T02:58:45;36.83;;;32.87;;
71910;SDS011;59783;52.232;5.170;2023-04-19T03:01:10;36.03;;;29.03;;
71910;SDS011;59783;52.232;5.170;2023-04-19T03:03:35;38.33;;;33.80;;
71910;SDS011;59783;52.232;5.170;2023-04-19T03:06:00;34.13;;;28.08;;
71910;SDS011;59783;52.232;5.170;2023-04-19T03:08:26;35.25;;;30.50;;
71910;SDS011;59783;52.232;5.170;2023-04-19T03:10:51;32.13;;;28.60;;
71910;SDS011;59783;52.232;5.170;2023-04-19T03:13:16;33.40;;;27.23;;
71910;SDS011;59783;52.232;5.170;2023-04-19T03:15:41;33.60;;;28.93;;
71910;SDS011;59783;52.232;5.170;2023-04-19T03:18:06;32.20;;;28.50;;
71910;SDS011;59783;52.232;5.170;2023-04-19T03:20:32;34.03;;;29.53;;
71910;SDS011;59783;52.232;5.170;2023-04-19T03:22:57;34.17;;;29.42;;
71910;SDS011;59783;52.232;5.170;2023-04-19T03:25:23;32.87;;;29.33;;
71910;SDS011;59783;52.232;5.170;2023-04-19T03:27:48;31.67;;;28.27;;
71910;SDS011;59783;52.232;5.170;2023-04-19T03:30:15;32.22;;;27.58;;
71910;SDS011;59783;52.232;5.170;2023-04-19T03:32:40;32.73;;;27.93;;
71910;SDS011;59783;52.232;5.170;2023-04-19T03:35:05;34.27;;;29.00;;
71910;SDS011;59783;52.232;5.170;2023-04-19T03:37:30;32.67;;;28.55;;
71910;SDS011;59783;52.232;5.170;2023-04-19T03:39:55;32.07;;;28.63;;
71910;SDS011;59783;52.232;5.170;2023-04-19T03:42:20;32.22;;;27.20;;
71910;SDS011;59783;52.232;5.170;2023-04-19T03:44:46;32.80;;;29.30;;
71910;SDS011;59783;52.232;5.170;2023-04-19T03:47:11;36.97;;;27.97;;
71910;SDS011;59783;52.232;5.170;2023-04-19T03:49:36;35.70;;;30.53;;
71910;SDS011;59783;52.232;5.170;2023-04-19T03:52:01;34.93;;;28.77;;
71910;SDS011;59783;52.232;5.170;2023-04-19T03:54:26;36.33;;;29.30;;
71910;SDS011;59783;52.232;5.170;2023-04-19T03:56:52;31.57;;;27.97;;
71910;SDS011;59783;52.232;5.170;2023-04-19T03:59:17;32.78;;;29.27;;
71910;SDS011;59783;52.232;5.170;2023-04-19T04:01:42;34.10;;;30.43;;
71910;SDS011;59783;52.232;5.170;2023-04-19T04:04:07;31.50;;;26.03;;
71910;SDS011;59783;52.232;5.170;2023-04-19T04:06:33;38.50;;;34.50;;
71910;SDS011;59783;52.232;5.170;2023-04-19T04:08:58;32.08;;;27.52;;
71910;SDS011;59783;52.232;5.170;2023-04-19T04:11:23;32.30;;;28.55;;
71910;SDS011;59783;52.232;5.170;2023-04-19T04:13:49;32.47;;;29.10;;
71910;SDS011;59783;52.232;5.170;2023-04-19T04:16:15;34.25;;;28.83;;
71910;SDS011;59783;52.232;5.170;2023-04-19T04:18:40;36.23;;;28.50;;
71910;SDS011;59783;52.232;5.170;2023-04-19T04:21:05;32.73;;;29.20;;
71910;SDS011;59783;52.232;5.170;2023-04-19T04:23:30;36.63;;;29.93;;
71910;SDS011;59783;52.232;5.170;2023-04-19T04:25:57;35.92;;;31.77;;
71910;SDS011;59783;52.232;5.170;2023-04-19T04:28:24;36.17;;;31.85;;
71910;SDS011;59783;52.232;5.170;2023-04-19T04:30:49;41.80;;;37.75;;
71910;SDS011;59783;52.232;5.170;2023-04-19T04:33:15;34.58;;;29.92;;
71910;SDS011;59783;52.232;5.170;2023-04-19T04:35:41;33.97;;;30.17;;
71910;SDS011;59783;52.232;5.170;2023-04-19T04:38:07;40.83;;;36.38;;
71910;SDS011;59783;52.232;5.170;2023-04-19T04:40:33;33.80;;;29.92;;
71910;SDS011;59783;52.232;5.170;2023-04-19T04:42:58;34.83;;;29.65;;
71910;SDS011;59783;52.232;5.170;2023-04-19T04:45:24;35.88;;;30.35;;
71910;SDS011;59783;52.232;5.170;2023-04-19T04:47:50;33.60;;;28.95;;
71910;SDS011;59783;52.232;5.170;2023-04-19T04:50:15;35.10;;;28.92;;
71910;SDS011;59783;52.232;5.170;2023-04-19T04:52:41;33.27;;;29.33;;
71910;SDS011;59783;52.232;5.170;2023-04-19T04:55:06;34.73;;;29.97;;
71910;SDS011;59783;52.232;5.170;2023-04-19T04:57:31;32.38;;;28.85;;
71910;SDS011;59783;52.232;5.170;2023-04-19T04:59:56;31.37;;;27.40;;
71910;SDS011;59783;52.232;5.170;2023-04-19T05:02:22;32.80;;;27.43;;
71910;SDS011;59783;52.232;5.170;2023-04-19T05:04:48;32.25;;;27.67;;
71910;SDS011;59783;52.232;5.170;2023-04-19T05:07:13;34.78;;;28.75;;
71910;SDS011;59783;52.232;5.170;2023-04-19T05:09:38;33.87;;;29.67;;
71910;SDS011;59783;52.232;5.170;2023-04-19T05:12:03;33.53;;;28.00;;
71910;SDS011;59783;52.232;5.170;2023-04-19T05:14:28;30.90;;;26.20;;
71910;SDS011;59783;52.232;5.170;2023-04-19T05:16:54;32.73;;;29.20;;
71910;SDS011;59783;52.232;5.170;2023-04-19T05:19:19;31.07;;;27.67;;
71910;SDS011;59783;52.232;5.170;2023-04-19T05:21:44;31.75;;;27.35;;
71910;SDS011;59783;52.232;5.170;2023-04-19T05:24:09;32.00;;;27.87;;
71910;SDS011;59783;52.232;5.170;2023-04-19T05:26:34;31.93;;;27.63;;
71910;SDS011;59783;52.232;5.170;2023-04-19T05:29:00;30.85;;;25.25;;
71910;SDS011;59783;52.232;5.170;2023-04-19T05:31:25;32.23;;;27.73;;
71910;SDS011;59783;52.232;5.170;2023-04-19T05:33:50;30.77;;;25.53;;
71910;SDS011;59783;52.232;5.170;2023-04-19T05:36:15;31.37;;;28.00;;
71910;SDS011;59783;52.232;5.170;2023-04-19T05:38:40;30.70;;;26.87;;
71910;SDS011;59783;52.232;5.170;2023-04-19T05:41:06;31.00;;;25.33;;
71910;SDS011;59783;52.232;5.170;2023-04-19T05:43:31;30.93;;;25.60;;
71910;SDS011;59783;52.232;5.170;2023-04-19T05:45:56;31.17;;;25.80;;
71910;SDS011;59783;52.232;5.170;2023-04-19T05:48:21;31.73;;;26.60;;
71910;SDS011;59783;52.232;5.170;2023-04-19T05:50:47;34.30;;;25.38;;
71910;SDS011;59783;52.232;5.170;2023-04-19T05:53:12;30.40;;;25.37;;
71910;SDS011;59783;52.232;5.170;2023-04-19T05:55:37;30.00;;;26.20;;
71910;SDS011;59783;52.232;5.170;2023-04-19T05:58:02;34.93;;;31.37;;
71910;SDS011;59783;52.232;5.170;2023-04-19T06:00:27;32.10;;;26.93;;
71910;SDS011;59783;52.232;5.170;2023-04-19T06:02:52;31.67;;;26.23;;
71910;SDS011;59783;52.232;5.170;2023-04-19T06:05:18;29.43;;;26.30;;
71910;SDS011;59783;52.232;5.170;2023-04-19T06:07:43;29.00;;;25.63;;
71910;SDS011;59783;52.232;5.170;2023-04-19T06:10:08;31.10;;;26.57;;
71910;SDS011;59783;52.232;5.170;2023-04-19T06:12:33;28.83;;;25.80;;
71910;SDS011;59783;52.232;5.170;2023-04-19T06:14:59;28.93;;;25.80;;
71910;SDS011;59783;52.232;5.170;2023-04-19T06:17:24;30.38;;;26.88;;
71910;SDS011;59783;52.232;5.170;2023-04-19T06:19:50;29.55;;;26.40;;
71910;SDS011;59783;52.232;5.170;2023-04-19T06:22:15;30.00;;;26.25;;
71910;SDS011;59783;52.232;5.170;2023-04-19T06:24:40;31.23;;;25.73;;
71910;SDS011;59783;52.232;5.170;2023-04-19T06:27:05;28.45;;;24.63;;
71910;SDS011;59783;52.232;5.170;2023-04-19T06:29:31;30.60;;;27.53;;
71910;SDS011;59783;52.232;5.170;2023-04-19T06:31:56;29.20;;;26.03;;
71910;SDS011;59783;52.232;5.170;2023-04-19T06:34:21;27.23;;;24.27;;
71910;SDS011;59783;52.232;5.170;2023-04-19T06:36:46;28.97;;;25.30;;
71910;SDS011;59783;52.232;5.170;2023-04-19T06:39:11;26.60;;;23.80;;
71910;SDS011;59783;52.232;5.170;2023-04-19T06:41:36;26.40;;;23.40;;
71910;SDS011;59783;52.232;5.170;2023-04-19T06:44:02;28.70;;;24.60;;
71910;SDS011;59783;52.232;5.170;2023-04-19T06:46:27;28.97;;;24.17;;
71910;SDS011;59783;52.232;5.170;2023-04-19T06:48:52;30.83;;;26.30;;
71910;SDS011;59783;52.232;5.170;2023-04-19T06:51:17;27.70;;;22.23;;
71910;SDS011;59783;52.232;5.170;2023-04-19T06:53:43;29.73;;;24.80;;
71910;SDS011;59783;52.232;5.170;2023-04-19T06:56:08;27.92;;;24.90;;
71910;SDS011;59783;52.232;5.170;2023-04-19T06:58:34;29.00;;;24.67;;
71910;SDS011;59783;52.232;5.170;2023-04-19T07:00:59;25.77;;;22.97;;
71910;SDS011;59783;52.232;5.170;2023-04-19T07:03:28;27.50;;;24.33;;
71910;SDS011;59783;52.232;5.170;2023-04-19T07:05:53;27.13;;;24.02;;
71910;SDS011;59783;52.232;5.170;2023-04-19T07:08:20;26.42;;;23.60;;
71910;SDS011;59783;52.232;5.170;2023-04-19T07:10:45;27.48;;;24.42;;
71910;SDS011;59783;52.232;5.170;2023-04-19T07:13:10;25.27;;;22.40;;
71910;SDS011;59783;52.232;5.170;2023-04-19T07:15:36;29.47;;;22.87;;
71910;SDS011;59783;52.232;5.170;2023-04-19T07:18:01;25.67;;;22.98;;
71910;SDS011;59783;52.232;5.170;2023-04-19T07:20:26;25.45;;;22.80;;
71910;SDS011;59783;52.232;5.170;2023-04-19T07:22:51;23.67;;;21.03;;
71910;SDS011;59783;52.232;5.170;2023-04-19T07:25:17;25.40;;;22.80;;
71910;SDS011;59783;52.232;5.170;2023-04-19T07:27:42;26.43;;;23.73;;
71910;SDS011;59783;52.232;5.170;2023-04-19T07:30:07;26.30;;;22.57;;
71910;SDS011;59783;52.232;5.170;2023-04-19T07:32:32;25.23;;;22.52;;
71910;SDS011;59783;52.232;5.170;2023-04-19T07:34:58;26.10;;;23.40;;
71910;SDS011;59783;52.232;5.170;2023-04-19T07:37:23;24.03;;;20.60;;
71910;SDS011;59783;52.232;5.170;2023-04-19T07:39:48;21.70;;;19.47;;
71910;SDS011;59783;52.232;5.170;2023-04-19T07:42:13;22.87;;;20.47;;
71910;SDS011;59783;52.232;5.170;2023-04-19T07:44:38;27.77;;;25.07;;
71910;SDS011;59783;52.232;5.170;2023-04-19T07:47:04;25.13;;;20.03;;
71910;SDS011;59783;52.232;5.170;2023-04-19T07:49:30;23.25;;;20.98;;
71910;SDS011;59783;52.232;5.170;2023-04-19T07:54:23;24.25;;;21.75;;
71910;SDS011;59783;52.232;5.170;2023-04-19T07:56:48;21.53;;;19.37;;
71910;SDS011;59783;52.232;5.170;2023-04-19T07:59:13;22.50;;;20.10;;
71910;SDS011;59783;52.232;5.170;2023-04-19T08:01:38;22.02;;;19.90;;
71910;SDS011;59783;52.232;5.170;2023-04-19T08:04:04;26.83;;;24.43;;
71910;SDS011;59783;52.232;5.170;2023-04-19T08:06:29;22.83;;;20.53;;
71910;SDS011;59783;52.232;5.170;2023-04-19T08:08:54;22.48;;;20.13;;
71910;SDS011;59783;52.232;5.170;2023-04-19T08:11:19;23.17;;;20.77;;
71910;SDS011;59783;52.232;5.170;2023-04-19T08:13:45;21.83;;;19.63;;
71910;SDS011;59783;52.232;5.170;2023-04-19T08:16:10;22.50;;;20.13;;
71910;SDS011;59783;52.232;5.170;2023-04-19T08:18:35;22.20;;;20.07;;
71910;SDS011;59783;52.232;5.170;2023-04-19T08:21:00;21.67;;;19.55;;
71910;SDS011;59783;52.232;5.170;2023-04-19T08:23:25;22.07;;;19.80;;
71910;SDS011;59783;52.232;5.170;2023-04-19T08:25:51;22.15;;;19.75;;
71910;SDS011;59783;52.232;5.170;2023-04-19T08:28:16;20.07;;;18.03;;
71910;SDS011;59783;52.232;5.170;2023-04-19T08:30:42;20.83;;;18.90;;
71910;SDS011;59783;52.232;5.170;2023-04-19T08:33:07;20.37;;;18.37;;
71910;SDS011;59783;52.232;5.170;2023-04-19T08:35:34;23.83;;;21.40;;
71910;SDS011;59783;52.232;5.170;2023-04-19T08:38:00;22.95;;;20.83;;
71910;SDS011;59783;52.232;5.170;2023-04-19T08:40:25;22.07;;;19.97;;
71910;SDS011;59783;52.232;5.170;2023-04-19T08:42:50;21.30;;;19.17;;
71910;SDS011;59783;52.232;5.170;2023-04-19T08:45:15;22.15;;;19.95;;
71910;SDS011;59783;52.232;5.170;2023-04-19T08:47:41;23.00;;;20.88;;
71910;SDS011;59783;52.232;5.170;2023-04-19T08:50:06;21.23;;;19.13;;
71910;SDS011;59783;52.232;5.170;2023-04-19T08:52:33;20.50;;;18.50;;
71910;SDS011;59783;52.232;5.170;2023-04-19T08:55:00;21.73;;;19.63;;
71910;SDS011;59783;52.232;5.170;2023-04-19T08:57:25;20.88;;;18.77;;
71910;SDS011;59783;52.232;5.170;2023-04-19T08:59:51;20.27;;;18.25;;
71910;SDS011;59783;52.232;5.170;2023-04-19T09:02:19;21.45;;;19.23;;
71910;SDS011;59783;52.232;5.170;2023-04-19T09:04:45;22.15;;;20.15;;
71910;SDS011;59783;52.232;5.170;2023-04-19T09:07:21;19.37;;;17.53;;
71910;SDS011;59783;52.232;5.170;2023-04-19T09:09:46;18.88;;;17.10;;
71910;SDS011;59783;52.232;5.170;2023-04-19T09:12:27;24.75;;;22.65;;
71910;SDS011;59783;52.232;5.170;2023-04-19T09:14:53;21.13;;;19.23;;
71910;SDS011;59783;52.232;5.170;2023-04-19T09:17:18;19.13;;;17.33;;
71910;SDS011;59783;52.232;5.170;2023-04-19T09:19:49;22.23;;;17.90;;
71910;SDS011;59783;52.232;5.170;2023-04-19T09:22:14;18.98;;;17.15;;
71910;SDS011;59783;52.232;5.170;2023-04-19T09:24:39;20.85;;;18.95;;
71910;SDS011;59783;52.232;5.170;2023-04-19T09:27:05;20.40;;;16.75;;
71910;SDS011;59783;52.232;5.170;2023-04-19T09:29:30;21.40;;;19.23;;
71910;SDS011;59783;52.232;5.170;2023-04-19T09:31:56;21.00;;;19.00;;
71910;SDS011;59783;52.232;5.170;2023-04-19T09:34:21;20.10;;;18.10;;
71910;SDS011;59783;52.232;5.170;2023-04-19T09:36:48;20.38;;;18.52;;
71910;SDS011;59783;52.232;5.170;2023-04-19T09:39:13;20.83;;;18.83;;
71910;SDS011;59783;52.232;5.170;2023-04-19T09:41:51;19.27;;;17.45;;
71910;SDS011;59783;52.232;5.170;2023-04-19T09:44:17;21.70;;;19.45;;
71910;SDS011;59783;52.232;5.170;2023-04-19T09:46:43;21.50;;;19.50;;
71910;SDS011;59783;52.232;5.170;2023-04-19T09:49:20;26.20;;;23.90;;
71910;SDS011;59783;52.232;5.170;2023-04-19T09:51:51;20.95;;;18.92;;
71910;SDS011;59783;52.232;5.170;2023-04-19T09:54:17;20.38;;;18.33;;
71910;SDS011;59783;52.232;5.170;2023-04-19T09:56:43;24.13;;;21.83;;
71910;SDS011;59783;52.232;5.170;2023-04-19T09:59:08;21.15;;;19.05;;
71910;SDS011;59783;52.232;5.170;2023-04-19T10:01:37;20.98;;;19.05;;
71910;SDS011;59783;52.232;5.170;2023-04-19T10:04:03;21.88;;;19.77;;
71910;SDS011;59783;52.232;5.170;2023-04-19T10:06:30;21.15;;;18.95;;
71910;SDS011;59783;52.232;5.170;2023-04-19T10:08:56;20.30;;;18.33;;
71910;SDS011;59783;52.232;5.170;2023-04-19T10:11:24;19.88;;;17.95;;
71910;SDS011;59783;52.232;5.170;2023-04-19T10:13:52;20.85;;;18.75;;
71910;SDS011;59783;52.232;5.170;2023-04-19T10:16:20;19.48;;;17.63;;
71910;SDS011;59783;52.232;5.170;2023-04-19T10:18:45;20.23;;;18.23;;
71910;SDS011;59783;52.232;5.170;2023-04-19T10:21:10;20.35;;;18.30;;
71910;SDS011;59783;52.232;5.170;2023-04-19T10:23:36;20.02;;;18.13;;
71910;SDS011;59783;52.232;5.170;2023-04-19T10:26:01;20.17;;;17.95;;
71910;SDS011;59783;52.232;5.170;2023-04-19T10:28:29;20.13;;;18.33;;
71910;SDS011;59783;52.232;5.170;2023-04-19T10:30:58;19.90;;;18.10;;
71910;SDS011;59783;52.232;5.170;2023-04-19T10:33:30;21.15;;;19.15;;
71910;SDS011;59783;52.232;5.170;2023-04-19T10:35:56;19.23;;;17.42;;
71910;SDS011;59783;52.232;5.170;2023-04-19T10:38:34;20.55;;;18.65;;
71910;SDS011;59783;52.232;5.170;2023-04-19T10:41:00;19.33;;;17.42;;
71910;SDS011;59783;52.232;5.170;2023-04-19T10:43:30;20.73;;;18.73;;
71910;SDS011;59783;52.232;5.170;2023-04-19T10:46:01;20.35;;;18.40;;
71910;SDS011;59783;52.232;5.170;2023-04-19T10:48:30;19.92;;;18.02;;
71910;SDS011;59783;52.232;5.170;2023-04-19T10:51:02;20.80;;;18.80;;
71910;SDS011;59783;52.232;5.170;2023-04-19T10:53:47;19.80;;;17.90;;
71910;SDS011;59783;52.232;5.170;2023-04-19T10:56:13;19.73;;;17.92;;
71910;SDS011;59783;52.232;5.170;2023-04-19T11:01:32;20.05;;;18.15;;
71910;SDS011;59783;52.232;5.170;2023-04-19T11:03:58;20.33;;;18.35;;
71910;SDS011;59783;52.232;5.170;2023-04-19T11:06:23;20.47;;;18.47;;
71910;SDS011;59783;52.232;5.170;2023-04-19T11:11:16;20.53;;;18.63;;
71910;SDS011;59783;52.232;5.170;2023-04-19T11:13:42;20.67;;;18.60;;
71910;SDS011;59783;52.232;5.170;2023-04-19T11:16:07;20.80;;;18.60;;
71910;SDS011;59783;52.232;5.170;2023-04-19T11:18:32;21.63;;;19.70;;
71910;SDS011;59783;52.232;5.170;2023-04-19T11:20:57;20.13;;;17.70;;
71910;SDS011;59783;52.232;5.170;2023-04-19T11:23:24;23.33;;;21.00;;
71910;SDS011;59783;52.232;5.170;2023-04-19T11:25:50;25.65;;;23.35;;
71910;SDS011;59783;52.232;5.170;2023-04-19T11:28:16;19.80;;;17.95;;
71910;SDS011;59783;52.232;5.170;2023-04-19T11:30:41;27.60;;;25.17;;
71910;SDS011;59783;52.232;5.170;2023-04-19T11:33:06;21.55;;;19.25;;
71910;SDS011;59783;52.232;5.170;2023-04-19T11:35:32;22.20;;;18.90;;
71910;SDS011;59783;52.232;5.170;2023-04-19T11:37:57;21.63;;;19.52;;
71910;SDS011;59783;52.232;5.170;2023-04-19T11:40:23;20.83;;;18.83;;
71910;SDS011;59783;52.232;5.170;2023-04-19T11:42:53;21.17;;;19.05;;
71910;SDS011;59783;52.232;5.170;2023-04-19T11:47:50;21.73;;;19.73;;
71910;SDS011;59783;52.232;5.170;2023-04-19T11:52:56;21.35;;;19.33;;
71910;SDS011;59783;52.232;5.170;2023-04-19T11:55:21;20.35;;;18.33;;
71910;SDS011;59783;52.232;5.170;2023-04-19T11:57:47;21.40;;;19.20;;
71910;SDS011;59783;52.232;5.170;2023-04-19T12:00:12;22.60;;;20.23;;
71910;SDS011;59783;52.232;5.170;2023-04-19T12:02:38;22.70;;;20.42;;
71910;SDS011;59783;52.232;5.170;2023-04-19T12:05:10;20.02;;;17.92;;
71910;SDS011;59783;52.232;5.170;2023-04-19T12:07:36;20.77;;;18.73;;
71910;SDS011;59783;52.232;5.170;2023-04-19T12:10:10;21.60;;;19.30;;
71910;SDS011;59783;52.232;5.170;2023-04-19T12:12:36;25.40;;;22.95;;
71910;SDS011;59783;52.232;5.170;2023-04-19T12:15:01;22.73;;;20.48;;
71910;SDS011;59783;52.232;5.170;2023-04-19T12:17:27;27.03;;;24.53;;
71910;SDS011;59783;52.232;5.170;2023-04-19T12:19:52;21.50;;;19.50;;
71910;SDS011;59783;52.232;5.170;2023-04-19T12:22:17;19.60;;;17.50;;
71910;SDS011;59783;52.232;5.170;2023-04-19T12:24:49;22.10;;;19.80;;
71910;SDS011;59783;52.232;5.170;2023-04-19T12:29:40;24.10;;;22.00;;
71910;SDS011;59783;52.232;5.170;2023-04-19T12:32:05;20.15;;;18.15;;
71910;SDS011;59783;52.232;5.170;2023-04-19T12:34:30;20.77;;;18.67;;
71910;SDS011;59783;52.232;5.170;2023-04-19T12:36:56;22.27;;;19.80;;
71910;SDS011;59783;52.232;5.170;2023-04-19T12:39:21;23.15;;;20.92;;
71910;SDS011;59783;52.232;5.170;2023-04-19T12:41:47;20.95;;;18.95;;
71910;SDS011;59783;52.232;5.170;2023-04-19T12:44:13;22.45;;;20.25;;
71910;SDS011;59783;52.232;5.170;2023-04-19T12:46:38;21.17;;;18.67;;
71910;SDS011;59783;52.232;5.170;2023-04-19T12:49:03;20.90;;;18.77;;
71910;SDS011;59783;52.232;5.170;2023-04-19T12:51:29;23.93;;;21.67;;
71910;SDS011;59783;52.232;5.170;2023-04-19T12:53:54;22.13;;;20.02;;
71910;SDS011;59783;52.232;5.170;2023-04-19T12:56:19;23.37;;;21.03;;
71910;SDS011;59783;52.232;5.170;2023-04-19T12:58:45;20.75;;;18.75;;
71910;SDS011;59783;52.232;5.170;2023-04-19T13:01:10;21.57;;;19.47;;
71910;SDS011;59783;52.232;5.170;2023-04-19T13:03:35;21.97;;;18.93;;
71910;SDS011;59783;52.232;5.170;2023-04-19T13:06:01;22.23;;;19.92;;
71910;SDS011;59783;52.232;5.170;2023-04-19T13:08:27;23.08;;;20.65;;
71910;SDS011;59783;52.232;5.170;2023-04-19T13:10:52;21.53;;;19.43;;
71910;SDS011;59783;52.232;5.170;2023-04-19T13:13:17;23.40;;;21.27;;
71910;SDS011;59783;52.232;5.170;2023-04-19T13:15:42;22.53;;;20.43;;
71910;SDS011;59783;52.232;5.170;2023-04-19T13:18:08;21.95;;;19.75;;
71910;SDS011;59783;52.232;5.170;2023-04-19T13:20:33;20.60;;;18.60;;
71910;SDS011;59783;52.232;5.170;2023-04-19T13:22:58;23.27;;;21.17;;
71910;SDS011;59783;52.232;5.170;2023-04-19T13:25:23;20.50;;;18.50;;
71910;SDS011;59783;52.232;5.170;2023-04-19T13:27:48;20.57;;;18.57;;
71910;SDS011;59783;52.232;5.170;2023-04-19T13:30:15;22.70;;;20.55;;
71910;SDS011;59783;52.232;5.170;2023-04-19T13:32:40;20.63;;;18.73;;
71910;SDS011;59783;52.232;5.170;2023-04-19T13:35:05;21.63;;;19.63;;
71910;SDS011;59783;52.232;5.170;2023-04-19T13:37:31;21.50;;;19.27;;
71910;SDS011;59783;52.232;5.170;2023-04-19T13:39:56;22.63;;;20.30;;
71910;SDS011;59783;52.232;5.170;2023-04-19T13:42:21;20.97;;;18.97;;
71910;SDS011;59783;52.232;5.170;2023-04-19T13:44:47;21.48;;;19.38;;
71910;SDS011;59783;52.232;5.170;2023-04-19T13:47:12;21.47;;;18.83;;
71910;SDS011;59783;52.232;5.170;2023-04-19T13:49:37;27.93;;;25.47;;
71910;SDS011;59783;52.232;5.170;2023-04-19T13:52:03;22.73;;;20.48;;
71910;SDS011;59783;52.232;5.170;2023-04-19T13:54:28;22.33;;;20.03;;
71910;SDS011;59783;52.232;5.170;2023-04-19T13:56:53;23.47;;;21.13;;
71910;SDS011;59783;52.232;5.170;2023-04-19T13:59:18;23.10;;;20.70;;
71910;SDS011;59783;52.232;5.170;2023-04-19T14:01:44;24.00;;;21.75;;
71910;SDS011;59783;52.232;5.170;2023-04-19T14:04:09;21.43;;;19.30;;
71910;SDS011;59783;52.232;5.170;2023-04-19T14:06:35;22.83;;;20.63;;
71910;SDS011;59783;52.232;5.170;2023-04-19T14:09:00;22.10;;;20.00;;
71910;SDS011;59783;52.232;5.170;2023-04-19T14:11:25;20.13;;;18.03;;
71910;SDS011;59783;52.232;5.170;2023-04-19T14:13:51;21.85;;;19.30;;
71910;SDS011;59783;52.232;5.170;2023-04-19T14:16:16;22.67;;;20.45;;
71910;SDS011;59783;52.232;5.170;2023-04-19T14:18:41;22.83;;;20.57;;
71910;SDS011;59783;52.232;5.170;2023-04-19T14:21:06;21.33;;;19.03;;
71910;SDS011;59783;52.232;5.170;2023-04-19T14:23:32;22.17;;;19.93;;
71910;SDS011;59783;52.232;5.170;2023-04-19T14:25:57;22.27;;;20.13;;
71910;SDS011;59783;52.232;5.170;2023-04-19T14:28:22;22.70;;;20.00;;
71910;SDS011;59783;52.232;5.170;2023-04-19T14:30:47;22.70;;;20.60;;